Byron, MI (48418)

6:47 PM EDT on August 28, 2015 (GMT -0400)
Fowlerville | | Change Station
CLOSE
Current Station
Personal Weather Station
Location: MI, 65G
Elevation: 912 ft
Nearby Weather Stations

Elev 912 ft 42.72 °N, 84.06 °W | Updated 1 second ago

Partly Cloudy
Partly Cloudy
72.3 °F
Feels Like 74 °F
N
0.0
Wind Variable Wind from South
Gusts 0.0 mph

Today
High -- | Low -- °F
--% Chance of Precip.
Yesterday
High -- | Low -- °F
Precip. -- in
6:56 AM 8:17 PM
Waxing Gibbous, 99% visible
Pressure 30.12 in
Visibility 10.0 miles
Clouds Clear
Heat Index 74 °F
Dew Point 63 °F
Humidity 72%
Rainfall 0.00 in
Snow Depth Not available.
UV 1 out of 12
Pollen 10.00 out of 12
Air Quality Not available.
Flu Activity Not available.
METAR KOZW 282235Z AUTO 17003KT 10SM CLR 23/14 A3012 RMK AO2 T02310136
Pressure 30.12 in
Visibility 10.0 miles
Clouds Clear
Heat Index 74 °F
Dew Point 63 °F
Humidity 72%
Rainfall 0.00 in
Snow Depth Not available.
UV 1 out of 12
Pollen 10.00 out of 12
Air Quality Not available.
Flu Activity Not available.
METAR KOZW 282235Z AUTO 17003KT 10SM CLR 23/14 A3012 RMK AO2 T02310136

10-Day Weather Forecast

×

Almanac

Astronomy

Aug. 28, 2015 Rise Set
Actual Time
Civil Twilight
Nautical Twilight
Astronomical Twilight
Moon
Length of Visible Light
Length of Day
Tomorrow will be .
, % of the Moon is Illuminated

Today's Extremes

State Highs State Lows

Community

WunderPhotos

Upload Photos

1,850,516 photos uploaded!

WunderBlogs® & News

Nearby

Air Quality

  Air Quality AQ Index Pollutant
Not available.

Snow Depth

Station Depth Elevation

Earthquake Activity

City Distance Mag. Time & Date
Minimum magnitude displayed is 2.5.

Coastal Water Temperatures

Place Temperature

Stations

Nearby Weather Stations

Station Location Temp. Windchill Dew Point Humidity Wind Precip. Elev Updated Type